Time;durP1;ratioP1;P1;durP2;ratioP2;P2;SDS_P1;SDS_P2;PMS_P1;PMS_P2;Temp;Humidity;BMP_temperature;BMP_pressure;BME280_temperature;BME280_humidity;BME280_pressure;Samples;Min_cycle;Max_cycle;Signal;HPM_P1;HPM_P2
2022/04/09 00:00:26;;;;;;;;;3.00;3.00;;;;;12.26;99.31;97854.97;6288311;20;2742050;-60
2022/04/09 00:02:55;;;;;;;;;1.75;1.75;;;;;11.99;100.00;97848.59;6305433;20;1803515;-61
2022/04/09 00:05:23;;;;;;;;;1.00;1.00;;;;;12.27;99.83;97846.75;6321188;20;2733578;-60
2022/04/09 00:07:52;;;;;;;;;2.00;0.50;;;;;12.28;97.52;97850.28;6301272;20;1805569;-60
2022/04/09 00:10:20;;;;;;;;;2.00;2.00;;;;;12.27;98.18;97856.69;6318214;20;2733770;-61
2022/04/09 00:12:48;;;;;;;;;2.00;2.00;;;;;12.40;97.50;97854.47;6289958;20;2750331;-61
2022/04/09 00:15:17;;;;;;;;;1.00;1.00;;;;;12.29;98.89;97851.97;6302666;20;1803469;-61
2022/04/09 00:17:46;;;;;;;;;2.67;2.67;;;;;12.23;98.83;97857.97;6319656;20;3457539;-61
2022/04/09 00:20:18;;;;;;;;;19.00;17.33;;;;;12.21;98.94;97855.41;6281243;20;3546291;-61
2022/04/09 00:22:47;;;;;;;;;14.67;13.00;;;;;12.26;97.15;97860.34;6284330;20;2787785;-61
2022/04/09 00:25:21;;;;;;;;;3.00;3.00;;;;;12.37;97.77;97864.66;6319677;20;2737865;-61
2022/04/09 00:27:52;;;;;;;;;2.50;1.00;;;;;12.33;98.88;97858.75;6286302;20;2727363;-61
2022/04/09 00:30:21;;;;;;;;;0.00;0.00;;;;;12.22;99.09;97858.97;6303641;20;1802523;-61
2022/04/09 00:32:49;;;;;;;;;1.00;1.00;;;;;11.83;100.00;97865.31;6322075;20;2732545;-60
2022/04/09 00:35:17;;;;;;;;;3.00;2.00;;;;;11.99;100.00;97856.66;6288641;20;2742103;-61
2022/04/09 00:37:47;;;;;;;;;1.00;1.00;;;;;11.71;100.00;97850.34;6306429;20;1799386;-61
2022/04/09 00:40:18;;;;;;;;;2.00;2.00;;;;;11.73;100.00;97836.78;6317263;20;2741925;-61
2022/04/09 00:42:47;;;;;;;;;1.75;1.25;;;;;11.96;100.00;97840.81;6305306;20;1806666;-61
2022/04/09 00:45:16;;;;;;;;;1.00;1.00;;;;;11.89;100.00;97837.03;6334519;20;1803527;-61
2022/04/09 00:47:45;;;;;;;;;2.00;1.00;;;;;11.88;100.00;97840.72;6335583;20;1804569;-61
2022/04/09 00:50:14;;;;;;;;;0.75;0.75;;;;;11.75;100.00;97824.88;6331649;20;1802934;-61
2022/04/09 00:52:52;;;;;;;;;2.50;1.00;;;;;11.84;100.00;97823.16;6332533;20;1805583;-61
2022/04/09 00:58:20;;;;;;;;;0.00;0.00;;;;;11.81;100.00;97826.13;6321626;20;2735711;-61
2022/04/09 01:00:49;;;;;;;;;0.75;0.75;;;;;11.94;100.00;97810.53;6305268;20;1800327;-61
2022/04/09 01:03:21;;;;;;;;;3.00;1.00;;;;;12.05;100.00;97815.72;6336059;20;1806775;-60
2022/04/09 01:05:50;;;;;;;;;0.00;0.00;;;;;11.98;100.00;97816.44;6333929;20;1803466;-61
2022/04/09 01:08:29;;;;;;;;;0.00;0.00;;;;;11.91;100.00;97796.56;6334896;20;1803544;-60
2022/04/09 01:10:58;;;;;;;;;0.00;0.00;;;;;11.97;100.00;97810.22;6332512;20;1803598;-61
2022/04/09 01:13:26;;;;;;;;;0.00;0.00;;;;;11.98;100.00;97813.75;6335483;20;1803536;-61
2022/04/09 01:15:55;;;;;;;;;0.00;0.00;;;;;11.76;100.00;97825.72;6335592;20;1798275;-61
2022/04/09 01:18:24;;;;;;;;;1.00;1.00;;;;;11.92;100.00;97809.81;6320630;20;2728384;-61
2022/04/09 01:20:58;;;;;;;;;3.25;2.00;;;;;11.81;100.00;97818.06;6300557;20;1805672;-61
2022/04/09 01:23:27;;;;;;;;;3.00;2.00;;;;;11.75;100.00;97813.28;6318950;20;2744130;-61
2022/04/09 01:26:00;;;;;;;;;2.00;1.00;;;;;11.72;100.00;97816.28;6302929;20;1805604;-60
2022/04/09 01:28:29;;;;;;;;;1.00;1.00;;;;;11.87;100.00;97830.94;6332431;20;1803897;-61
2022/04/09 01:30:58;;;;;;;;;1.00;1.00;;;;;11.71;100.00;97825.31;6330987;20;1808114;-61
2022/04/09 01:33:26;;;;;;;;;1.00;1.00;;;;;11.56;100.00;97836.56;6332446;20;1803770;-61
2022/04/09 01:35:55;;;;;;;;;2.00;2.00;;;;;11.89;100.00;97831.66;6336163;20;1806635;-60
2022/04/09 01:38:23;;;;;;;;;1.00;1.00;;;;;11.52;100.00;97835.16;6330521;20;1802742;-60
2022/04/09 01:40:54;;;;;;;;;1.75;1.75;;;;;11.47;100.00;97842.78;6335843;20;1803461;-61
2022/04/09 01:43:23;;;;;;;;;1.00;1.00;;;;;11.53;100.00;97844.91;6334766;20;1802991;-60
2022/04/09 01:45:51;;;;;;;;;3.00;1.00;;;;;11.69;100.00;97846.13;6318654;20;2744088;-50
2022/04/09 01:48:19;;;;;;;;;0.50;0.50;;;;;11.59;100.00;97836.25;6302119;20;1803352;-49
2022/04/09 01:50:48;;;;;;;;;2.00;2.00;;;;;11.68;100.00;97828.31;6301537;20;1807646;-55
2022/04/09 01:53:18;;;;;;;;;4.25;2.00;;;;;11.69;100.00;97830.00;6333453;20;1809793;-55
2022/04/09 01:55:46;;;;;;;;;2.50;2.00;;;;;11.70;100.00;97804.81;6315636;20;2744000;-53
2022/04/09 01:58:14;;;;;;;;;2.00;2.00;;;;;11.70;100.00;97807.50;6284602;20;2750477;-51
2022/04/09 02:00:43;;;;;;;;;1.50;1.50;;;;;11.71;100.00;97818.09;6298357;20;1798262;-56
2022/04/09 02:03:11;;;;;;;;;2.00;2.00;;;;;11.62;100.00;97803.72;6335107;20;1807573;-55
2022/04/09 02:05:40;;;;;;;;;6.00;2.00;;;;;11.64;100.00;97817.84;6332215;20;1807800;-53
2022/04/09 02:08:08;;;;;;;;;2.00;2.00;;;;;11.57;100.00;97810.53;6316342;20;2748206;-53
2022/04/09 02:10:37;;;;;;;;;2.00;2.00;;;;;11.39;100.00;97818.50;6280370;20;2744005;-51
2022/04/09 02:13:12;;;;;;;;;2.00;2.00;;;;;11.45;100.00;97817.91;6284211;20;2744003;-51
2022/04/09 02:15:40;;;;;;;;;4.00;3.00;;;;;11.49;100.00;97807.72;6282237;20;2742007;-53
2022/04/09 02:18:08;;;;;;;;;4.00;2.50;;;;;11.42;100.00;97813.66;6284698;20;2747127;-51
2022/04/09 02:20:39;;;;;;;;;2.50;2.50;;;;;11.31;100.00;97799.56;6323722;20;3470040;-52
2022/04/09 02:23:07;;;;;;;;;2.00;2.00;;;;;11.23;100.00;97805.66;6317200;20;2744003;-53
2022/04/09 02:25:35;;;;;;;;;2.00;2.00;;;;;11.47;100.00;97818.63;6283469;20;2756502;-52
2022/04/09 02:28:03;;;;;;;;;2.00;2.00;;;;;11.47;100.00;97821.28;6285971;20;2744034;-47
2022/04/09 02:30:31;;;;;;;;;2.00;2.00;;;;;11.50;100.00;97825.53;6283794;20;2735898;-54
2022/04/09 02:32:59;;;;;;;;;2.00;2.00;;;;;11.31;100.00;97840.72;6287950;20;2746074;-52
2022/04/09 02:35:28;;;;;;;;;2.50;2.00;;;;;11.05;100.00;97848.53;6299046;20;1802613;-51
2022/04/09 02:37:57;;;;;;;;;3.50;3.50;;;;;11.11;100.00;97841.72;6315860;20;2743998;-51
2022/04/09 02:40:25;;;;;;;;;4.00;4.00;;;;;11.15;100.00;97835.09;6283487;20;2752373;-50
2022/04/09 02:42:52;;;;;;;;;6.50;4.00;;;;;11.24;100.00;97836.06;6284879;20;2756534;-47
2022/04/09 02:45:21;;;;;;;;;4.00;4.00;;;;;11.35;100.00;97843.97;6288033;20;2753399;-47
2022/04/09 02:47:48;;;;;;;;;5.00;3.50;;;;;11.14;100.00;97850.38;6284174;20;2754415;-48
2022/04/09 02:50:16;;;;;;;;;5.50;4.50;;;;;11.19;100.00;97848.09;6280192;20;2749364;-51
2022/04/09 02:52:44;;;;;;;;;4.00;4.00;;;;;11.31;100.00;97861.38;6295301;20;2756540;-48
2022/04/09 02:55:12;;;;;;;;;6.50;5.00;;;;;11.53;100.00;97852.97;6284854;20;2745087;-50
2022/04/09 02:57:40;;;;;;;;;8.00;6.00;;;;;11.18;100.00;97849.06;6286337;20;2479419;-53
2022/04/09 03:00:12;;;;;;;;;5.00;5.00;;;;;11.11;100.00;97845.28;6281489;20;2741958;-48
2022/04/09 03:02:42;;;;;;;;;5.00;5.00;;;;;11.14;100.00;97854.91;6284574;20;2737763;-50
2022/04/09 03:05:13;;;;;;;;;8.00;6.00;;;;;11.09;100.00;97849.09;6284368;20;2744046;-49
2022/04/09 03:07:41;;;;;;;;;9.00;8.00;;;;;11.06;100.00;97858.31;6285436;20;2749238;-49
2022/04/09 03:10:10;;;;;;;;;9.50;6.50;;;;;11.14;100.00;97853.06;6282351;20;2748286;-48
2022/04/09 03:12:46;;;;;;;;;5.00;5.00;;;;;11.12;100.00;97852.34;6282173;20;2754414;-48
2022/04/09 03:15:17;;;;;;;;;4.00;4.00;;;;;11.11;100.00;97866.78;6309969;20;2756523;-48
2022/04/09 03:17:45;;;;;;;;;8.00;8.00;;;;;11.16;100.00;97867.19;6315143;20;2742969;-47
2022/04/09 03:20:14;;;;;;;;;9.20;5.00;;;;;11.32;100.00;97865.75;6303791;20;2757582;-46
2022/04/09 03:22:47;;;;;;;;;8.00;7.00;;;;;11.11;100.00;97877.53;6315856;20;2739885;-47
2022/04/09 03:25:15;;;;;;;;;7.50;7.50;;;;;11.09;100.00;97878.66;6283449;20;2737824;-51
2022/04/09 03:27:43;;;;;;;;;7.50;7.50;;;;;11.08;100.00;97871.56;6280160;20;2734714;-46
2022/04/09 03:30:11;;;;;;;;;11.00;8.00;;;;;11.12;100.00;97871.16;6279971;20;2764987;-48
2022/04/09 03:32:41;;;;;;;;;10.00;9.00;;;;;11.07;100.00;97870.72;6285311;20;2751284;-47
2022/04/09 03:35:12;;;;;;;;;5.00;5.00;;;;;11.25;100.00;97870.00;6280336;20;2748202;-46
2022/04/09 03:37:40;;;;;;;;;8.00;6.00;;;;;11.22;100.00;97871.16;6284651;20;2748211;-47
2022/04/09 03:40:10;;;;;;;;;5.50;5.50;;;;;11.08;100.00;97879.63;6279512;20;2743185;-46
2022/04/09 03:42:39;;;;;;;;;7.00;5.25;;;;;10.86;100.00;97865.50;6300404;20;1812872;-45
2022/04/09 03:45:07;;;;;;;;;5.00;4.00;;;;;10.93;100.00;97861.25;6314621;20;2741913;-49
2022/04/09 03:47:35;;;;;;;;;7.00;7.00;;;;;10.94;100.00;97872.84;6285286;20;2739929;-47
2022/04/09 03:50:05;;;;;;;;;7.50;5.00;;;;;10.92;100.00;97880.19;6281466;20;2743029;-45
2022/04/09 03:52:35;;;;;;;;;9.80;8.00;;;;;11.02;100.00;97893.63;6305511;20;2751331;-45
2022/04/09 03:55:03;;;;;;;;;10.00;9.00;;;;;10.92;100.00;97896.31;6316241;20;2755580;-45
2022/04/09 03:57:31;;;;;;;;;8.00;8.00;;;;;10.83;100.00;97897.16;6280179;20;2738898;-46
2022/04/09 03:59:59;;;;;;;;;9.50;5.00;;;;;10.88;100.00;97884.16;6280406;20;2755482;-49
2022/04/09 04:02:26;;;;;;;;;6.00;4.00;;;;;10.95;100.00;97874.53;6289839;20;2735689;-48
2022/04/09 04:04:54;;;;;;;;;6.50;6.00;;;;;11.11;100.00;97884.69;6288321;20;2737844;-48
2022/04/09 04:07:23;;;;;;;;;5.00;4.00;;;;;11.10;100.00;97883.88;6317200;20;2744073;-47
2022/04/09 04:09:51;;;;;;;;;5.00;4.00;;;;;10.66;100.00;97893.31;6287542;20;2737747;-47
2022/04/09 04:12:19;;;;;;;;;5.00;5.00;;;;;10.79;100.00;97890.34;6286894;20;2748167;-50
2022/04/09 04:14:47;;;;;;;;;8.00;5.00;;;;;11.11;100.00;97895.44;6289129;20;2748167;-48
2022/04/09 04:17:14;;;;;;;;;5.00;4.00;;;;;10.91;100.00;97900.00;6287320;20;2750300;-47
2022/04/09 04:19:42;;;;;;;;;6.00;4.00;;;;;10.98;100.00;97893.06;6287053;20;2752490;-51
2022/04/09 04:22:10;;;;;;;;;3.00;3.00;;;;;10.96;100.00;97898.56;6287149;20;2740900;-48
2022/04/09 04:24:38;;;;;;;;;5.00;5.00;;;;;10.95;100.00;97896.00;6288770;20;2747135;-50
2022/04/09 04:27:07;;;;;;;;;6.00;6.00;;;;;10.89;100.00;97889.38;6285713;20;2750247;-47
2022/04/09 04:29:35;;;;;;;;;3.00;3.00;;;;;10.89;100.00;97891.22;6287565;20;2747152;-46
2022/04/09 04:32:04;;;;;;;;;5.50;5.00;;;;;10.95;100.00;97890.66;6287700;20;2744019;-50
2022/04/09 04:34:32;;;;;;;;;4.50;4.50;;;;;10.62;100.00;97886.53;6286025;20;2743026;-46
2022/04/09 04:36:59;;;;;;;;;4.00;4.00;;;;;10.71;100.00;97889.22;6286979;20;2752385;-51
2022/04/09 04:39:28;;;;;;;;;2.50;2.50;;;;;10.82;100.00;97884.72;6300865;20;1811857;-48
2022/04/09 04:41:56;;;;;;;;;3.00;3.00;;;;;10.68;100.00;97881.44;6319771;20;2755593;-48
2022/04/09 04:44:24;;;;;;;;;6.75;4.00;;;;;10.69;100.00;97880.47;6304674;20;1812709;-48
2022/04/09 04:46:52;;;;;;;;;7.00;4.00;;;;;10.74;100.00;97878.22;6320550;20;2744197;-49
2022/04/09 04:49:20;;;;;;;;;5.00;3.00;;;;;10.54;100.00;97889.91;6286370;20;2751298;-51
2022/04/09 04:51:47;;;;;;;;;3.50;2.00;;;;;10.50;100.00;97897.38;6286612;20;2746107;-50
2022/04/09 04:54:16;;;;;;;;;2.00;2.00;;;;;10.70;100.00;97892.91;6287980;20;2741930;-48
2022/04/09 04:56:43;;;;;;;;;3.00;2.00;;;;;10.72;100.00;97893.63;6286122;20;2737865;-50
2022/04/09 04:59:12;;;;;;;;;2.25;2.00;;;;;10.87;100.00;97904.78;6302402;20;1804505;-51
2022/04/09 05:01:40;;;;;;;;;5.50;4.00;;;;;10.66;100.00;97898.69;6315564;20;2754438;-49
2022/04/09 05:04:10;;;;;;;;;4.50;3.00;;;;;10.46;100.00;97889.75;6286115;20;2741948;-47
2022/04/09 05:06:37;;;;;;;;;2.00;2.00;;;;;10.50;100.00;97888.47;6287230;20;2754529;-48
2022/04/09 05:09:06;;;;;;;;;3.00;3.00;;;;;10.62;100.00;97879.34;6302182;20;1804523;-47
2022/04/09 05:11:34;;;;;;;;;2.00;2.00;;;;;10.40;100.00;97879.56;6316524;20;2741922;-45
2022/04/09 05:14:03;;;;;;;;;4.00;2.00;;;;;10.52;100.00;97876.63;6284033;20;2756502;-46
2022/04/09 05:16:31;;;;;;;;;3.00;3.00;;;;;10.30;100.00;97874.19;6287009;20;2755570;-47
2022/04/09 05:19:00;;;;;;;;;2.50;2.50;;;;;10.24;100.00;97878.25;6303190;20;1809727;-48
2022/04/09 05:21:28;;;;;;;;;3.00;3.00;;;;;10.15;100.00;97876.38;6318165;20;2750237;-48
2022/04/09 05:23:56;;;;;;;;;2.00;2.00;;;;;10.18;100.00;97867.19;6302529;20;1807051;-49
2022/04/09 05:26:24;;;;;;;;;5.00;2.00;;;;;10.27;100.00;97864.59;6317796;20;2749407;-46
2022/04/09 05:29:00;;;;;;;;;2.00;2.00;;;;;10.20;100.00;97860.72;6309518;20;1810760;-47
2022/04/09 05:31:28;;;;;;;;;3.00;2.00;;;;;10.07;100.00;97862.78;6318983;20;2746134;-47
2022/04/09 05:33:56;;;;;;;;;2.00;2.00;;;;;10.02;100.00;97854.31;6285454;20;2755622;-47
2022/04/09 05:36:24;;;;;;;;;2.00;2.00;;;;;10.23;100.00;97838.97;6285575;20;2755586;-49
2022/04/09 05:38:53;;;;;;;;;1.25;1.25;;;;;10.10;100.00;97835.69;6299402;20;1807748;-48
2022/04/09 05:41:20;;;;;;;;;2.00;2.00;;;;;10.14;100.00;97837.13;6318015;20;2752357;-45
2022/04/09 05:43:48;;;;;;;;;2.00;2.00;;;;;10.08;100.00;97837.66;6286670;20;2756564;-47
2022/04/09 05:46:16;;;;;;;;;3.00;2.00;;;;;10.19;100.00;97825.97;6286717;20;2747284;-47
2022/04/09 05:48:45;;;;;;;;;2.00;1.50;;;;;10.19;100.00;97824.16;6302101;20;1807634;-48
2022/04/09 05:51:13;;;;;;;;;1.00;1.00;;;;;10.13;100.00;97818.50;6331940;20;1803501;-47
2022/04/09 05:53:41;;;;;;;;;2.50;2.00;;;;;10.31;100.00;97806.13;6317289;20;2748167;-47
2022/04/09 05:56:08;;;;;;;;;2.00;2.00;;;;;10.18;100.00;97803.69;6286527;20;2732548;-49
2022/04/09 05:58:39;;;;;;;;;1.00;1.00;;;;;10.23;100.00;97797.91;6304128;20;1802347;-45
2022/04/09 06:01:09;;;;;;;;;3.75;1.75;;;;;9.97;100.00;97794.88;6333397;20;1804557;-47
2022/04/09 06:03:38;;;;;;;;;1.00;1.00;;;;;10.12;100.00;97793.53;6335016;20;1799956;-46
2022/04/09 06:06:08;;;;;;;;;2.50;1.00;;;;;10.36;100.00;97787.78;6333772;20;1803470;-47
2022/04/09 06:08:37;;;;;;;;;1.00;1.00;;;;;10.23;100.00;97782.66;6317996;20;2475325;-48
2022/04/09 06:11:05;;;;;;;;;2.00;1.00;;;;;10.39;100.00;97786.66;6300510;20;1809591;-50
2022/04/09 06:13:34;;;;;;;;;2.00;2.00;;;;;10.37;100.00;97788.63;6334211;20;1811851;-47
2022/04/09 06:16:06;;;;;;;;;1.50;1.00;;;;;10.28;100.00;97795.69;6332782;20;1796130;-50
2022/04/09 06:18:39;;;;;;;;;4.25;1.00;;;;;10.40;100.00;97785.66;6333607;20;1810809;-47
2022/04/09 06:21:09;;;;;;;;;1.00;1.00;;;;;10.06;100.00;97802.97;6334057;20;1803973;-47
2022/04/09 06:23:38;;;;;;;;;0.75;0.75;;;;;10.42;100.00;97791.75;6332511;20;1805601;-48
2022/04/09 06:26:07;;;;;;;;;0.25;0.25;;;;;10.19;100.00;97786.63;6331059;20;1805122;-47
2022/04/09 06:28:35;;;;;;;;;0.00;0.00;;;;;10.32;100.00;97803.31;6332439;20;1809827;-48
2022/04/09 06:31:03;;;;;;;;;2.00;1.00;;;;;10.44;100.00;97785.25;6314914;20;2731505;-48
2022/04/09 06:33:32;;;;;;;;;0.25;0.00;;;;;10.39;100.00;97786.66;6301284;20;1807638;-48
2022/04/09 06:35:59;;;;;;;;;1.50;1.00;;;;;10.32;100.00;97776.50;6317674;20;2733730;-46
2022/04/09 06:38:29;;;;;;;;;0.25;0.25;;;;;10.59;100.00;97784.84;6302299;20;1803414;-48
2022/04/09 06:40:58;;;;;;;;;2.50;0.50;;;;;10.48;100.00;97785.84;6333117;20;1809784;-46
2022/04/09 06:43:27;;;;;;;;;1.00;1.00;;;;;10.48;100.00;97799.25;6331057;20;1809717;-47
2022/04/09 06:45:56;;;;;;;;;0.75;0.75;;;;;10.46;100.00;97795.84;6332668;20;1802877;-46
2022/04/09 06:48:24;;;;;;;;;1.00;1.00;;;;;10.40;100.00;97791.03;6316687;20;2735701;-46
2022/04/09 06:50:52;;;;;;;;;0.00;0.00;;;;;10.32;100.00;97792.59;6298768;20;1803483;-46
2022/04/09 06:53:21;;;;;;;;;1.50;1.00;;;;;10.44;100.00;97789.78;6332390;20;1804524;-46
2022/04/09 06:55:49;;;;;;;;;1.50;1.00;;;;;10.35;100.00;97790.59;6332593;20;1807691;-48
2022/04/09 06:58:18;;;;;;;;;1.75;1.00;;;;;10.28;100.00;97799.22;6333034;20;1809686;-50
2022/04/09 07:00:46;;;;;;;;;1.25;0.00;;;;;10.50;100.00;97792.72;6331796;20;1809730;-47
2022/04/09 07:03:15;;;;;;;;;1.00;1.00;;;;;10.37;100.00;97794.00;6330499;20;1805132;-49
2022/04/09 07:05:44;;;;;;;;;1.00;1.00;;;;;10.43;100.00;97788.09;6330090;20;1800306;-48
2022/04/09 07:08:12;;;;;;;;;1.00;1.00;;;;;10.58;100.00;97796.56;6332772;20;1809190;-49
2022/04/09 07:10:41;;;;;;;;;0.75;0.75;;;;;10.49;100.00;97798.25;6329484;20;1803489;-49
2022/04/09 07:13:10;;;;;;;;;0.75;0.75;;;;;10.64;100.00;97799.53;6333273;20;1803990;-49
2022/04/09 07:15:41;;;;;;;;;1.60;1.60;;;;;10.54;100.00;97790.63;6353001;20;2737783;-46
2022/04/09 07:18:10;;;;;;;;;4.00;2.00;;;;;10.63;100.00;97795.13;6325916;20;1814352;-48
2022/04/09 07:20:40;;;;;;;;;1.00;1.00;;;;;10.55;100.00;97797.69;6329604;20;1802401;-47
2022/04/09 07:23:08;;;;;;;;;3.00;1.75;;;;;10.64;100.00;97791.47;6330404;20;1799858;-47
2022/04/09 07:25:37;;;;;;;;;1.25;1.25;;;;;10.79;100.00;97786.50;6332789;20;1809760;-50
2022/04/09 07:28:06;;;;;;;;;2.25;1.00;;;;;10.79;100.00;97782.97;6328689;20;1809757;-47
2022/04/09 07:30:33;;;;;;;;;2.00;2.00;;;;;10.60;100.00;97779.31;6311228;20;2753400;-51
2022/04/09 07:33:02;;;;;;;;;3.00;2.00;;;;;10.57;100.00;97782.28;6298472;20;1809775;-47
2022/04/09 07:35:31;;;;;;;;;1.00;1.00;;;;;10.78;100.00;97790.19;6327854;20;1802505;-51
2022/04/09 07:38:00;;;;;;;;;1.00;1.00;;;;;10.66;100.00;97786.78;6334336;20;1808737;-49
2022/04/09 07:40:29;;;;;;;;;1.00;1.00;;;;;10.82;100.00;97798.81;6333112;20;1804442;-48
2022/04/09 07:43:00;;;;;;;;;1.00;1.00;;;;;10.59;100.00;97787.53;6336683;20;1804652;-48
2022/04/09 07:45:29;;;;;;;;;1.00;1.00;;;;;10.75;100.00;97783.28;6329005;20;1809195;-49
2022/04/09 07:48:00;;;;;;;;;1.00;1.00;;;;;10.70;100.00;97788.22;6310356;20;1799356;-49
2022/04/09 07:50:29;;;;;;;;;0.00;0.00;;;;;10.66;100.00;97770.69;6331590;20;1803444;-47
2022/04/09 07:52:58;;;;;;;;;0.75;0.00;;;;;10.89;100.00;97762.34;6335496;20;1804508;-46
2022/04/09 07:55:26;;;;;;;;;0.00;0.00;;;;;11.17;100.00;97776.72;6334275;20;1803904;-49
2022/04/09 07:57:55;;;;;;;;;0.25;0.25;;;;;11.06;100.00;97791.16;6334178;20;1802490;-54
2022/04/09 08:00:24;;;;;;;;;1.00;0.00;;;;;10.90;100.00;97797.13;6318842;20;2733593;-55
2022/04/09 08:02:53;;;;;;;;;0.00;0.00;;;;;10.73;100.00;97827.34;6295088;20;1810778;-53
2022/04/09 08:05:20;;;;;;;;;9.00;7.00;;;;;11.12;100.00;97970.53;6304737;20;2753386;-56
2022/04/09 08:07:48;;;;;;;;;7.00;7.00;;;;;11.05;100.00;97950.56;6285832;20;2746192;-58
2022/04/09 08:10:18;;;;;;;;;5.25;5.25;;;;;11.17;100.00;97965.59;6297945;20;1798279;-56
2022/04/09 08:12:49;;;;;;;;;9.00;8.00;;;;;11.11;100.00;97968.84;6318713;20;2739931;-57
2022/04/09 08:15:20;;;;;;;;;5.00;5.00;;;;;11.09;100.00;97968.13;6286586;20;2743038;-55
2022/04/09 08:17:49;;;;;;;;;3.50;3.00;;;;;10.85;100.00;97970.34;6286690;20;2740910;-56
2022/04/09 08:20:22;;;;;;;;;3.00;1.00;;;;;11.09;100.00;97983.41;6298971;20;1794288;-56
2022/04/09 08:22:51;;;;;;;;;0.50;0.50;;;;;10.85;100.00;97975.69;6332231;20;1808552;-53
2022/04/09 08:25:20;;;;;;;;;1.00;1.00;;;;;11.18;100.00;97969.09;6335261;20;1804063;-53
2022/04/09 08:27:52;;;;;;;;;4.00;1.00;;;;;11.34;100.00;97971.22;6335667;20;1801035;-54
2022/04/09 08:30:22;;;;;;;;;0.50;0.00;;;;;11.42;100.00;97968.69;6331875;20;1805589;-55
2022/04/09 08:32:52;;;;;;;;;1.00;1.00;;;;;11.55;99.20;97969.25;6319566;20;2733581;-55
2022/04/09 08:35:21;;;;;;;;;1.00;1.00;;;;;11.67;100.00;97971.78;6302610;20;1797207;-53
2022/04/09 08:37:54;;;;;;;;;2.00;2.00;;;;;11.60;100.00;97966.97;6333636;20;1804633;-55
2022/04/09 08:40:24;;;;;;;;;5.00;3.00;;;;;11.40;100.00;97976.03;6312842;20;2740274;-57
2022/04/09 08:42:53;;;;;;;;;4.50;4.50;;;;;11.54;100.00;97983.69;6286045;20;2748191;-57
2022/04/09 08:45:20;;;;;;;;;4.00;2.00;;;;;11.64;100.00;97981.00;6284254;20;2752359;-55
2022/04/09 08:47:52;;;;;;;;;6.71;5.71;;;;;11.76;100.00;97987.88;6329262;20;3455452;-56
2022/04/09 08:50:22;;;;;;;;;19.00;17.33;;;;;11.57;100.00;97987.94;6310829;20;3556534;-56
2022/04/09 08:52:51;;;;;;;;;10.00;9.00;;;;;12.02;100.00;97990.84;6305901;20;2763870;-55
2022/04/09 08:55:21;;;;;;;;;7.00;4.00;;;;;11.85;100.00;97988.88;6299467;20;1812879;-56
2022/04/09 08:57:50;;;;;;;;;4.00;4.00;;;;;11.64;100.00;97983.69;6340661;20;2756542;-53
2022/04/09 09:00:19;;;;;;;;;6.00;5.00;;;;;11.62;100.00;97997.25;6314621;20;2747159;-54
2022/04/09 09:03:02;;;;;;;;;8.00;4.50;;;;;11.82;100.00;98000.78;6284062;20;2750280;-55
2022/04/09 09:05:40;;;;;;;;;9.50;6.00;;;;;11.73;100.00;98009.69;6288185;20;2765006;-55
2022/04/09 09:08:10;;;;;;;;;4.00;4.00;;;;;11.91;100.00;98006.31;6285367;20;2739900;-53
2022/04/09 09:10:39;;;;;;;;;1.50;1.50;;;;;12.14;100.00;98010.38;6287586;20;2728454;-52
2022/04/09 09:13:12;;;;;;;;;2.00;2.00;;;;;11.94;100.00;98004.19;6285912;20;2746185;-56
2022/04/09 09:15:57;;;;;;;;;1.50;1.50;;;;;11.97;100.00;98011.94;6303890;20;1803533;-53
2022/04/09 09:18:28;;;;;;;;;1.00;1.00;;;;;11.75;100.00;98017.63;6318579;20;2732568;-56
2022/04/09 09:21:02;;;;;;;;;8.00;4.50;;;;;11.91;100.00;98009.00;6285103;20;2750331;-56
2022/04/09 09:23:34;;;;;;;;;3.00;3.00;;;;;11.64;99.89;98011.41;6287604;20;2750239;-56
2022/04/09 09:26:03;;;;;;;;;5.00;3.50;;;;;11.49;99.55;98003.91;6284128;20;2752344;-57
2022/04/09 09:28:36;;;;;;;;;11.00;10.00;;;;;11.91;98.76;98004.47;6285582;20;2772125;-54
2022/04/09 09:31:05;;;;;;;;;2.00;2.00;;;;;12.12;98.14;98011.50;6314939;20;2752356;-56
2022/04/09 09:33:35;;;;;;;;;3.00;3.00;;;;;12.21;97.98;98010.63;6288048;20;2739840;-55
2022/04/09 09:36:32;;;;;;;;;2.00;2.00;;;;;12.02;98.67;98000.75;6286345;20;2753523;-56
2022/04/09 09:39:06;;;;;;;;;4.00;4.00;;;;;11.75;99.90;98006.88;6284221;20;2754577;-57
2022/04/09 09:41:34;;;;;;;;;3.50;2.00;;;;;11.78;99.91;98006.59;6280093;20;2756496;-51
2022/04/09 09:44:07;;;;;;;;;3.25;3.00;;;;;11.85;100.00;98008.56;6301629;20;1809742;-57
2022/04/09 09:46:35;;;;;;;;;2.00;2.00;;;;;11.95;100.00;98019.31;6317039;20;2752739;-56
2022/04/09 09:49:03;;;;;;;;;5.00;3.50;;;;;11.99;99.50;98026.09;6284891;20;2744087;-54
2022/04/09 09:51:31;;;;;;;;;4.50;3.00;;;;;12.11;100.00;98017.88;6285933;20;2739845;-57
2022/04/09 09:54:12;;;;;;;;;4.00;3.00;;;;;12.10;100.00;98021.56;6283409;20;2742327;-56
2022/04/09 09:56:44;;;;;;;;;2.00;2.00;;;;;12.01;99.72;98023.28;6285997;20;2741978;-55
2022/04/09 09:59:14;;;;;;;;;3.50;3.50;;;;;12.12;100.00;98028.50;6284980;20;2746100;-57
2022/04/09 10:01:47;;;;;;;;;2.50;2.00;;;;;12.22;100.00;98020.41;6284711;20;2751375;-57
2022/04/09 10:04:16;;;;;;;;;19.00;17.67;;;;;12.16;100.00;98031.72;6289644;20;3549224;-54
2022/04/09 10:06:45;;;;;;;;;33.00;32.00;;;;;12.00;100.00;98037.72;6316165;20;3608561;-58
2022/04/09 10:09:18;;;;;;;;;13.00;12.50;;;;;12.49;100.00;98044.66;6284081;20;2811766;-57
2022/04/09 10:11:49;;;;;;;;;8.00;7.00;;;;;12.17;100.00;98055.81;6283792;20;2742264;-58
2022/04/09 10:14:26;;;;;;;;;5.50;4.50;;;;;11.88;100.00;98055.03;6281006;20;2745145;-53
2022/04/09 10:16:55;;;;;;;;;5.00;5.00;;;;;11.94;100.00;98060.66;6284679;20;2748162;-58
2022/04/09 10:19:25;;;;;;;;;5.50;4.50;;;;;12.17;100.00;98060.34;6280880;20;2748277;-54
2022/04/09 10:21:57;;;;;;;;;6.57;6.00;;;;;12.24;100.00;98074.91;6332948;20;3455520;-53
2022/04/09 10:24:28;;;;;;;;;4.75;3.50;;;;;11.50;98.20;98078.16;6329569;20;1794068;-56
2022/04/09 10:26:58;;;;;;;;;3.00;3.00;;;;;11.16;94.12;98097.31;6314289;20;2741958;-55
2022/04/09 10:29:26;;;;;;;;;3.00;3.00;;;;;10.96;92.41;98091.06;6299530;20;1806623;-54
2022/04/09 10:31:55;;;;;;;;;1.25;1.25;;;;;10.63;92.09;98116.34;6333589;20;1807632;-56
2022/04/09 10:34:22;;;;;;;;;8.00;6.00;;;;;10.86;91.70;98100.91;6317530;20;2732721;-54
2022/04/09 10:36:57;;;;;;;;;7.50;5.00;;;;;10.62;91.73;98104.78;6286405;20;2740911;-56
2022/04/09 10:39:45;;;;;;;;;5.00;5.00;;;;;10.84;92.21;98105.56;6284253;20;2747247;-55
2022/04/09 10:42:48;;;;;;;;;7.00;4.00;;;;;10.54;92.11;98112.63;6284498;20;2747129;-50
2022/04/09 10:45:18;;;;;;;;;9.60;8.80;;;;;10.88;93.26;98131.19;6307983;20;2756524;-53
2022/04/09 10:48:10;;;;;;;;;23.50;20.00;;;;;10.84;92.46;98137.78;6280247;20;2841949;-53
2022/04/09 10:51:14;;;;;;;;;11.00;11.00;;;;;10.53;92.67;98137.75;6279122;20;2797132;-55
2022/04/09 10:53:50;;;;;;;;;19.00;14.00;;;;;10.43;92.29;98152.97;6280316;20;2822167;-52
2022/04/09 10:56:31;;;;;;;;;9.50;9.50;;;;;10.07;90.83;98157.75;6277211;20;2768110;-53
2022/04/09 10:59:16;;;;;;;;;7.00;7.00;;;;;9.96;89.84;98149.78;6281723;20;2726355;-51
2022/04/09 11:01:47;;;;;;;;;8.00;8.00;;;;;10.23;90.55;98152.78;6311939;20;2734618;-55
2022/04/09 11:07:23;;;;;;;;;4.50;4.50;;;;;9.95;87.53;98158.78;6280544;20;2744022;-56
2022/04/09 11:09:57;;;;;;;;;8.50;6.00;;;;;10.14;87.98;98164.31;6275878;20;2737255;-52
2022/04/09 11:12:38;;;;;;;;;6.00;6.00;;;;;10.18;86.93;98168.41;6277367;20;2738848;-53
2022/04/09 11:15:08;;;;;;;;;8.00;4.50;;;;;10.11;87.84;98180.66;6310992;20;2748295;-57
2022/04/09 11:17:48;;;;;;;;;8.00;8.00;;;;;10.28;87.86;98182.78;6276261;20;2738832;-56
2022/04/09 11:20:23;;;;;;;;;8.00;8.00;;;;;10.55;87.81;98197.53;6278465;20;2738831;-54
2022/04/09 11:22:54;;;;;;;;;9.00;9.00;;;;;10.20;87.08;98189.75;6278060;20;2756644;-57
2022/04/09 11:25:29;;;;;;;;;3.50;3.50;;;;;9.90;86.55;98210.13;6278555;20;2755606;-55
2022/04/09 11:28:18;;;;;;;;;7.00;7.00;;;;;9.72;86.14;98196.41;6279054;20;2742982;-58